Time;durP1;ratioP1;P1;durP2;ratioP2;P2;SDS_P1;SDS_P2;PMS_P1;PMS_P2;Temp;Humidity;BMP_temperature;BMP_pressure;BME280_temperature;BME280_humidity;BME280_pressure;Samples;Min_cycle;Max_cycle;Signal;HPM_P1;HPM_P2
2022/06/24 00:02:05;;;;;;;16.05;9.80;;;;;;;;;;5009920;28;20090;-76
2022/06/24 00:04:32;;;;;;;22.30;10.25;;;;;;;;;;5048434;28;20464;-75
2022/06/24 00:06:58;;;;;;;19.27;10.57;;;;;;;;;;5051388;28;20040;-74
2022/06/24 00:09:29;;;;;;;21.92;10.95;;;;;;;;;;5052690;28;20029;-74
2022/06/24 00:12:21;;;;;;;30.02;10.13;;;;;;;;;;5053186;28;20486;-74
2022/06/24 00:14:56;;;;;;;19.13;9.27;;;;;;;;;;5049117;28;20040;-74
2022/06/24 00:17:26;;;;;;;21.00;10.35;;;;;;;;;;5052909;28;20061;-76
2022/06/24 00:19:53;;;;;;;13.77;9.50;;;;;;;;;;5052610;28;20464;-76
2022/06/24 00:22:20;;;;;;;15.30;9.75;;;;;;;;;;5051364;28;20068;-76
2022/06/24 00:24:46;;;;;;;17.65;11.35;;;;;;;;;;5052929;28;20083;-76
2022/06/24 00:27:18;;;;;;;18.70;11.15;;;;;;;;;;5052743;28;20041;-76
2022/06/24 00:29:44;;;;;;;23.63;12.65;;;;;;;;;;5052855;28;20153;-77
2022/06/24 00:32:10;;;;;;;17.75;11.52;;;;;;;;;;5052578;28;20024;-76
2022/06/24 00:34:40;;;;;;;19.83;12.15;;;;;;;;;;5052727;28;20025;-76
2022/06/24 00:37:23;;;;;;;22.60;11.95;;;;;;;;;;5052572;28;20361;-76
2022/06/24 00:39:50;;;;;;;20.20;13.27;;;;;;;;;;5052634;28;20029;-76
2022/06/24 00:42:17;;;;;;;18.70;12.85;;;;;;;;;;5052549;28;20033;-77
2022/06/24 00:44:45;;;;;;;21.17;13.18;;;;;;;;;;5052672;28;20048;-76
2022/06/24 00:47:16;;;;;;;17.65;12.80;;;;;;;;;;5052562;28;20037;-77
2022/06/24 00:49:44;;;;;;;21.83;12.90;;;;;;;;;;5051110;28;20084;-77
2022/06/24 00:52:11;;;;;;;22.30;14.23;;;;;;;;;;5052331;28;20037;-77
2022/06/24 00:54:37;;;;;;;20.17;13.45;;;;;;;;;;5052443;28;20067;-77
2022/06/24 00:57:03;;;;;;;18.45;12.50;;;;;;;;;;5052011;28;20123;-77
2022/06/24 00:59:33;;;;;;;17.17;11.93;;;;;;;;;;5052009;28;20033;-77
2022/06/24 01:02:00;;;;;;;22.02;12.98;;;;;;;;;;5052168;28;20036;-76
2022/06/24 01:04:31;;;;;;;22.45;13.85;;;;;;;;;;5052323;28;20043;-77
2022/06/24 01:06:57;;;;;;;28.88;15.23;;;;;;;;;;5052047;28;20032;-77
2022/06/24 01:09:23;;;;;;;22.98;14.23;;;;;;;;;;5052108;28;20032;-77
2022/06/24 01:11:49;;;;;;;20.52;14.00;;;;;;;;;;5052290;28;20391;-76
2022/06/24 01:14:15;;;;;;;26.48;14.45;;;;;;;;;;5051970;28;20371;-76
2022/06/24 01:16:42;;;;;;;20.52;12.85;;;;;;;;;;5052253;28;20024;-75
2022/06/24 01:19:12;;;;;;;20.00;12.18;;;;;;;;;;5051998;28;20064;-75
2022/06/24 01:21:42;;;;;;;18.60;10.82;;;;;;;;;;5052101;28;20063;-76
2022/06/24 01:24:19;;;;;;;15.77;9.15;;;;;;;;;;5051995;28;20029;-75
2022/06/24 01:26:46;;;;;;;15.52;8.45;;;;;;;;;;5052272;28;20099;-75
2022/06/24 01:29:14;;;;;;;13.10;9.05;;;;;;;;;;5052081;28;20545;-75
2022/06/24 01:31:40;;;;;;;17.30;11.35;;;;;;;;;;5052102;28;20025;-76
2022/06/24 01:34:07;;;;;;;23.90;11.10;;;;;;;;;;5051840;28;20048;-76
2022/06/24 01:36:33;;;;;;;25.98;14.88;;;;;;;;;;5052219;28;20089;-76
2022/06/24 01:38:59;;;;;;;20.08;11.65;;;;;;;;;;5051835;28;20451;-76
2022/06/24 01:41:25;;;;;;;22.80;12.50;;;;;;;;;;5052146;28;20021;-76
2022/06/24 01:43:51;;;;;;;21.48;12.43;;;;;;;;;;5051238;28;20032;-76
2022/06/24 01:46:17;;;;;;;17.15;11.85;;;;;;;;;;5051793;28;20017;-76
2022/06/24 01:48:43;;;;;;;16.17;11.18;;;;;;;;;;5051739;28;20025;-76
2022/06/24 01:51:12;;;;;;;14.18;10.18;;;;;;;;;;5051833;28;20036;-76
2022/06/24 01:53:38;;;;;;;14.75;10.30;;;;;;;;;;5052095;28;20021;-76
2022/06/24 01:56:04;;;;;;;16.70;10.10;;;;;;;;;;5051714;28;20040;-76
2022/06/24 01:58:32;;;;;;;14.02;9.48;;;;;;;;;;5051906;28;20239;-76
2022/06/24 02:00:58;;;;;;;12.90;9.40;;;;;;;;;;5051786;28;20025;-77
2022/06/24 02:03:24;;;;;;;10.65;8.13;;;;;;;;;;5051926;28;20444;-77
2022/06/24 02:05:51;;;;;;;13.95;8.65;;;;;;;;;;5051830;28;20017;-77
2022/06/24 02:08:18;;;;;;;10.60;6.75;;;;;;;;;;5051762;28;20029;-77
2022/06/24 02:13:28;;;;;;;8.55;6.68;;;;;;;;;;5051549;28;20052;-77
2022/06/24 02:15:54;;;;;;;11.48;7.13;;;;;;;;;;5051771;28;20356;-77
2022/06/24 02:18:21;;;;;;;9.95;7.05;;;;;;;;;;5051472;28;20382;-77
2022/06/24 02:20:47;;;;;;;11.25;7.05;;;;;;;;;;5051569;28;20410;-77
2022/06/24 02:23:13;;;;;;;10.75;6.90;;;;;;;;;;5051740;28;20429;-77
2022/06/24 02:25:39;;;;;;;9.50;6.95;;;;;;;;;;5050586;28;20124;-77
2022/06/24 02:28:05;;;;;;;9.27;6.15;;;;;;;;;;5051695;28;20029;-77
2022/06/24 02:30:31;;;;;;;10.25;6.22;;;;;;;;;;5051643;28;20025;-77
2022/06/24 02:32:57;;;;;;;6.97;3.75;;;;;;;;;;5051527;28;20388;-77
2022/06/24 02:35:23;;;;;;;6.38;3.97;;;;;;;;;;5049942;28;20517;-77
2022/06/24 02:37:49;;;;;;;5.22;3.13;;;;;;;;;;5051396;28;20029;-77
2022/06/24 02:43:00;;;;;;;4.47;3.35;;;;;;;;;;5051513;28;20040;-77
2022/06/24 02:45:26;;;;;;;5.20;3.13;;;;;;;;;;5040169;28;20025;-77
2022/06/24 02:47:52;;;;;;;5.38;2.88;;;;;;;;;;5031414;28;20033;-77
2022/06/24 02:50:18;;;;;;;3.75;2.45;;;;;;;;;;5031351;28;20046;-77
2022/06/24 02:52:44;;;;;;;8.20;2.78;;;;;;;;;;5031387;28;20017;-77
2022/06/24 02:55:10;;;;;;;2.60;1.50;;;;;;;;;;5033819;28;20029;-77
2022/06/24 02:57:36;;;;;;;4.68;1.90;;;;;;;;;;5053986;28;20102;-77
2022/06/24 03:00:02;;;;;;;4.32;2.35;;;;;;;;;;5054919;28;20021;-77
2022/06/24 03:02:28;;;;;;;5.00;3.05;;;;;;;;;;5055048;28;20033;-76
2022/06/24 03:04:55;;;;;;;6.10;2.78;;;;;;;;;;5055152;28;20033;-77
2022/06/24 03:07:21;;;;;;;7.28;2.28;;;;;;;;;;5054583;28;20035;-77
2022/06/24 03:09:47;;;;;;;4.15;2.60;;;;;;;;;;5054718;28;20037;-77
2022/06/24 03:12:13;;;;;;;9.57;3.00;;;;;;;;;;5054604;28;20024;-77
2022/06/24 03:14:39;;;;;;;5.28;2.50;;;;;;;;;;5054526;28;20028;-77
2022/06/24 03:17:05;;;;;;;4.00;2.50;;;;;;;;;;5054727;28;20336;-77
2022/06/24 03:19:31;;;;;;;4.03;2.22;;;;;;;;;;5054659;28;20025;-77
2022/06/24 03:21:57;;;;;;;7.43;2.67;;;;;;;;;;5054753;28;20028;-77
2022/06/24 03:24:23;;;;;;;7.65;2.60;;;;;;;;;;5054608;28;20025;-77
2022/06/24 03:26:49;;;;;;;5.30;2.58;;;;;;;;;;5054659;28;20037;-77
2022/06/24 03:29:15;;;;;;;5.45;2.10;;;;;;;;;;5054608;28;20025;-76
2022/06/24 03:31:41;;;;;;;9.20;2.10;;;;;;;;;;5054411;28;20029;-76
2022/06/24 03:34:07;;;;;;;5.28;2.17;;;;;;;;;;5054334;28;20082;-76
2022/06/24 03:36:33;;;;;;;7.68;2.97;;;;;;;;;;5054585;28;20032;-76
2022/06/24 03:38:59;;;;;;;6.43;2.42;;;;;;;;;;5054399;28;20028;-76
2022/06/24 03:41:25;;;;;;;4.85;2.08;;;;;;;;;;5054492;28;20021;-77
2022/06/24 03:43:51;;;;;;;6.72;2.30;;;;;;;;;;5054167;28;20174;-76
2022/06/24 03:46:17;;;;;;;4.70;2.22;;;;;;;;;;5036243;28;20061;-76
2022/06/24 03:48:43;;;;;;;3.53;2.30;;;;;;;;;;5033994;28;20052;-77
2022/06/24 03:51:09;;;;;;;5.70;2.42;;;;;;;;;;5034175;28;20036;-76
2022/06/24 03:53:35;;;;;;;4.88;2.30;;;;;;;;;;5034311;28;20620;-77
2022/06/24 03:56:01;;;;;;;4.82;1.90;;;;;;;;;;5033800;28;20049;-76
2022/06/24 03:58:27;;;;;;;5.32;2.20;;;;;;;;;;5065904;28;20440;-76
2022/06/24 04:01:00;;;;;;;6.18;2.90;;;;;;;;;;5033963;28;20545;-77
2022/06/24 04:03:26;;;;;;;6.55;2.53;;;;;;;;;;5034056;28;20030;-76
2022/06/24 04:05:52;;;;;;;6.90;2.53;;;;;;;;;;5033986;28;20112;-77
2022/06/24 04:08:18;;;;;;;6.88;2.95;;;;;;;;;;5033527;28;20049;-77
2022/06/24 04:10:44;;;;;;;6.18;2.60;;;;;;;;;;5033929;28;20021;-77
2022/06/24 04:13:10;;;;;;;7.10;2.63;;;;;;;;;;5033669;28;20033;-77
2022/06/24 04:15:36;;;;;;;7.03;2.63;;;;;;;;;;5033890;28;20032;-77
2022/06/24 04:18:02;;;;;;;9.18;3.20;;;;;;;;;;5033711;28;20026;-77
2022/06/24 04:20:28;;;;;;;5.35;2.72;;;;;;;;;;5033583;28;20123;-77
2022/06/24 04:22:54;;;;;;;8.65;2.58;;;;;;;;;;5033861;28;20161;-77
2022/06/24 04:25:20;;;;;;;8.27;3.38;;;;;;;;;;5033696;28;20033;-77
2022/06/24 04:27:46;;;;;;;7.65;3.20;;;;;;;;;;5033658;28;20037;-77
2022/06/24 04:30:12;;;;;;;5.03;2.63;;;;;;;;;;5033356;28;20022;-77
2022/06/24 04:32:38;;;;;;;9.90;3.30;;;;;;;;;;5033266;28;20033;-77
2022/06/24 04:35:05;;;;;;;4.68;2.47;;;;;;;;;;5033396;28;20032;-77
2022/06/24 04:37:31;;;;;;;7.10;2.63;;;;;;;;;;5050749;28;20226;-77
2022/06/24 04:39:58;;;;;;;4.68;2.60;;;;;;;;;;5053135;28;20100;-77
2022/06/24 04:42:24;;;;;;;7.68;2.92;;;;;;;;;;5053260;28;20029;-77
2022/06/24 04:44:50;;;;;;;5.70;2.80;;;;;;;;;;5047079;28;20444;-77
2022/06/24 04:47:16;;;;;;;7.15;3.28;;;;;;;;;;5033123;28;20040;-77
2022/06/24 04:49:42;;;;;;;7.30;2.67;;;;;;;;;;5033245;28;20428;-77
2022/06/24 04:52:08;;;;;;;6.25;2.72;;;;;;;;;;5033130;28;20048;-77
2022/06/24 04:54:34;;;;;;;6.65;2.97;;;;;;;;;;5033187;28;20096;-77
2022/06/24 04:57:01;;;;;;;6.68;3.35;;;;;;;;;;5050401;28;20044;-77
2022/06/24 04:59:27;;;;;;;6.50;3.22;;;;;;;;;;5053003;28;20029;-77
2022/06/24 05:01:54;;;;;;;7.30;2.90;;;;;;;;;;5052843;28;20500;-77
2022/06/24 05:04:20;;;;;;;6.85;3.25;;;;;;;;;;5052849;28;20475;-77
2022/06/24 05:06:49;;;;;;;4.75;2.83;;;;;;;;;;5051498;28;20032;-77
2022/06/24 05:09:15;;;;;;;5.07;2.92;;;;;;;;;;5052631;28;20464;-78
2022/06/24 05:11:41;;;;;;;6.85;2.78;;;;;;;;;;5052717;28;20491;-77
2022/06/24 05:14:07;;;;;;;6.22;3.17;;;;;;;;;;5052657;28;20017;-77
2022/06/24 05:16:33;;;;;;;6.10;3.67;;;;;;;;;;5052480;28;20021;-77
2022/06/24 05:18:59;;;;;;;7.38;4.13;;;;;;;;;;5051527;28;20353;-77
2022/06/24 05:21:25;;;;;;;7.05;4.18;;;;;;;;;;5052639;28;20038;-77
2022/06/24 05:23:51;;;;;;;8.38;3.67;;;;;;;;;;5052631;28;20033;-77
2022/06/24 05:26:17;;;;;;;9.43;4.47;;;;;;;;;;5052322;28;20464;-77
2022/06/24 05:28:43;;;;;;;6.75;3.92;;;;;;;;;;5052376;28;20127;-77
2022/06/24 05:31:09;;;;;;;9.35;4.72;;;;;;;;;;5052308;28;20044;-77
2022/06/24 05:33:35;;;;;;;7.88;4.50;;;;;;;;;;5052260;28;20052;-77
2022/06/24 05:36:01;;;;;;;9.93;4.28;;;;;;;;;;5052228;28;20017;-77
2022/06/24 05:38:27;;;;;;;9.20;3.90;;;;;;;;;;5052012;28;20127;-77
2022/06/24 05:40:54;;;;;;;5.70;3.80;;;;;;;;;;5052176;28;20428;-77
2022/06/24 05:43:20;;;;;;;7.38;3.80;;;;;;;;;;5051945;28;20025;-77
2022/06/24 05:45:46;;;;;;;7.95;3.22;;;;;;;;;;5052049;28;20025;-76
2022/06/24 05:48:13;;;;;;;7.22;3.45;;;;;;;;;;5052276;28;20033;-77
2022/06/24 05:50:40;;;;;;;4.93;3.30;;;;;;;;;;5052435;28;20025;-77
2022/06/24 05:55:55;;;;;;;4.70;3.33;;;;;;;;;;5052540;28;20056;-77
2022/06/24 05:58:22;;;;;;;10.40;3.90;;;;;;;;;;5052369;28;20032;-77
2022/06/24 06:00:48;;;;;;;6.90;4.20;;;;;;;;;;5052241;28;20036;-77
2022/06/24 06:03:14;;;;;;;7.63;4.57;;;;;;;;;;5052003;28;20044;-77
2022/06/24 06:05:40;;;;;;;10.27;3.67;;;;;;;;;;5052254;28;20028;-77
2022/06/24 06:08:06;;;;;;;5.82;3.75;;;;;;;;;;5049590;28;20032;-75
2022/06/24 06:10:35;;;;;;;7.68;4.07;;;;;;;;;;5051335;28;20029;-77
2022/06/24 06:13:01;;;;;;;7.25;3.78;;;;;;;;;;5049935;28;20021;-77
2022/06/24 06:15:29;;;;;;;8.57;3.42;;;;;;;;;;5049567;28;20017;-77
2022/06/24 06:17:55;;;;;;;7.20;3.67;;;;;;;;;;5051165;28;20101;-77
2022/06/24 06:20:21;;;;;;;5.60;3.38;;;;;;;;;;5051062;28;20557;-77
2022/06/24 06:22:48;;;;;;;7.82;3.83;;;;;;;;;;5051170;28;20021;-77
2022/06/24 06:25:17;;;;;;;13.05;3.60;;;;;;;;;;5051222;28;20424;-77
2022/06/24 06:27:44;;;;;;;7.68;4.00;;;;;;;;;;5051225;28;20025;-77
2022/06/24 06:30:10;;;;;;;8.57;4.40;;;;;;;;;;5051761;28;20517;-77
2022/06/24 06:32:39;;;;;;;7.40;4.30;;;;;;;;;;5055206;28;20029;-77
2022/06/24 06:35:05;;;;;;;7.18;4.25;;;;;;;;;;5055001;28;20021;-77
2022/06/24 06:37:31;;;;;;;8.50;4.82;;;;;;;;;;5054798;28;20086;-76
2022/06/24 06:39:58;;;;;;;8.52;4.55;;;;;;;;;;5054704;28;20028;-77
2022/06/24 06:42:24;;;;;;;6.93;4.47;;;;;;;;;;5054866;28;20475;-77
2022/06/24 06:44:50;;;;;;;8.48;4.60;;;;;;;;;;5054746;28;20110;-77
2022/06/24 06:47:18;;;;;;;7.10;4.82;;;;;;;;;;5054799;28;20055;-77
2022/06/24 06:49:45;;;;;;;7.78;4.32;;;;;;;;;;5054383;28;20025;-75
2022/06/24 06:52:11;;;;;;;7.45;4.75;;;;;;;;;;5052603;28;20064;-75
2022/06/24 06:54:37;;;;;;;8.25;4.40;;;;;;;;;;5054054;28;20482;-75
2022/06/24 06:57:03;;;;;;;6.32;4.65;;;;;;;;;;5053714;28;20171;-75
2022/06/24 06:59:30;;;;;;;10.85;4.20;;;;;;;;;;5053827;28;20039;-75
2022/06/24 07:01:56;;;;;;;10.82;5.82;;;;;;;;;;5054206;28;20461;-75
2022/06/24 07:04:22;;;;;;;9.88;4.78;;;;;;;;;;5053942;28;20112;-75
2022/06/24 07:06:48;;;;;;;7.57;5.38;;;;;;;;;;5053719;28;20025;-75
2022/06/24 07:09:14;;;;;;;8.73;5.10;;;;;;;;;;5053461;28;20025;-75
2022/06/24 07:11:40;;;;;;;7.80;4.72;;;;;;;;;;5053592;28;20021;-75
2022/06/24 07:14:06;;;;;;;15.45;5.60;;;;;;;;;;5053435;28;20452;-75
2022/06/24 07:16:32;;;;;;;8.88;4.68;;;;;;;;;;5053629;28;20104;-75
2022/06/24 07:18:58;;;;;;;7.53;4.50;;;;;;;;;;5053501;28;20024;-75
2022/06/24 07:21:24;;;;;;;8.63;5.45;;;;;;;;;;5053657;28;20024;-75
2022/06/24 07:23:50;;;;;;;8.10;4.93;;;;;;;;;;5053345;28;20025;-75
2022/06/24 07:26:16;;;;;;;9.13;5.03;;;;;;;;;;5053359;28;20078;-75
2022/06/24 07:28:43;;;;;;;8.60;4.80;;;;;;;;;;5053537;28;20103;-75
2022/06/24 07:31:15;;;;;;;5.43;4.57;;;;;;;;;;5053220;28;20120;-75
2022/06/24 07:33:41;;;;;;;11.20;5.30;;;;;;;;;;5052574;28;20147;-75
2022/06/24 07:36:07;;;;;;;11.70;5.60;;;;;;;;;;5053335;28;20126;-75
2022/06/24 07:38:33;;;;;;;7.78;5.15;;;;;;;;;;5053036;28;20033;-74
2022/06/24 07:40:59;;;;;;;8.18;5.13;;;;;;;;;;5052284;28;20021;-76
2022/06/24 07:43:25;;;;;;;7.40;5.30;;;;;;;;;;5052241;28;20025;-74
2022/06/24 07:45:51;;;;;;;6.80;5.30;;;;;;;;;;5052846;28;20043;-74
2022/06/24 07:48:18;;;;;;;9.55;5.47;;;;;;;;;;5053028;28;20028;-75
2022/06/24 07:50:44;;;;;;;7.93;5.50;;;;;;;;;;5053108;28;20063;-75
2022/06/24 07:53:10;;;;;;;9.80;5.65;;;;;;;;;;5053066;28;20522;-74
2022/06/24 07:58:20;;;;;;;10.40;5.93;;;;;;;;;;5053597;28;20036;-75
2022/06/24 08:00:48;;;;;;;8.35;5.50;;;;;;;;;;5053136;28;20449;-76
2022/06/24 08:03:14;;;;;;;12.68;6.50;;;;;;;;;;5053260;28;20048;-77
2022/06/24 08:05:40;;;;;;;15.45;6.30;;;;;;;;;;5053288;28;20032;-77
2022/06/24 08:08:06;;;;;;;15.73;6.65;;;;;;;;;;5053240;28;20441;-76
2022/06/24 08:10:32;;;;;;;8.88;6.57;;;;;;;;;;5053161;28;20108;-78
2022/06/24 08:12:58;;;;;;;12.77;7.35;;;;;;;;;;5053122;28;20033;-77
2022/06/24 08:15:24;;;;;;;12.68;7.68;;;;;;;;;;5035820;28;20384;-76
2022/06/24 08:17:50;;;;;;;14.82;8.25;;;;;;;;;;5033196;28;20349;-78
2022/06/24 08:20:17;;;;;;;17.13;9.40;;;;;;;;;;5032923;28;20433;-77
2022/06/24 08:22:43;;;;;;;16.52;9.20;;;;;;;;;;5033029;28;20025;-76
2022/06/24 08:25:09;;;;;;;13.70;9.00;;;;;;;;;;5033091;28;20436;-77
2022/06/24 08:27:35;;;;;;;20.50;8.80;;;;;;;;;;5033451;28;20039;-79
2022/06/24 08:30:03;;;;;;;14.13;9.40;;;;;;;;;;5036871;28;20060;-77
2022/06/24 08:32:29;;;;;;;12.95;8.75;;;;;;;;;;5052368;28;20052;-78
2022/06/24 08:34:56;;;;;;;12.40;9.40;;;;;;;;;;5052527;28;20020;-76
2022/06/24 08:37:22;;;;;;;16.63;10.00;;;;;;;;;;5052293;28;20017;-76
2022/06/24 08:39:51;;;;;;;13.43;9.80;;;;;;;;;;5051022;28;20020;-77
2022/06/24 08:42:17;;;;;;;14.45;10.15;;;;;;;;;;5052475;28;20033;-76
2022/06/24 08:44:43;;;;;;;14.80;9.40;;;;;;;;;;5050621;28;20512;-76
2022/06/24 08:47:15;;;;;;;16.85;9.93;;;;;;;;;;5053480;28;20431;-82
2022/06/24 08:49:41;;;;;;;15.10;9.57;;;;;;;;;;5053695;28;20025;-81
2022/06/24 08:52:12;;;;;;;11.82;9.55;;;;;;;;;;5053519;28;20464;-80
2022/06/24 08:54:42;;;;;;;15.68;9.90;;;;;;;;;;5053732;28;20027;-81
2022/06/24 08:57:13;;;;;;;14.07;10.05;;;;;;;;;;5053359;28;20041;-81
2022/06/24 08:59:47;;;;;;;11.85;8.98;;;;;;;;;;5053259;28;20104;-81
2022/06/24 09:02:14;;;;;;;11.32;8.13;;;;;;;;;;5052124;28;20475;-81
2022/06/24 09:04:43;;;;;;;15.25;8.88;;;;;;;;;;5053097;28;20120;-80
2022/06/24 09:07:26;;;;;;;13.63;9.30;;;;;;;;;;5051836;28;20029;-81
2022/06/24 09:10:04;;;;;;;13.10;9.18;;;;;;;;;;5051607;28;20487;-82
2022/06/24 09:12:36;;;;;;;15.75;9.75;;;;;;;;;;5052985;28;20040;-80
2022/06/24 09:15:06;;;;;;;11.93;8.23;;;;;;;;;;5051922;28;20021;-80
2022/06/24 09:17:33;;;;;;;11.32;9.07;;;;;;;;;;5053618;28;20017;-80
2022/06/24 09:20:09;;;;;;;16.63;9.85;;;;;;;;;;5053785;28;20021;-80
2022/06/24 09:22:35;;;;;;;12.77;9.20;;;;;;;;;;5053490;28;20029;-80
2022/06/24 09:25:03;;;;;;;11.57;9.25;;;;;;;;;;5053304;28;20510;-80
2022/06/24 09:27:29;;;;;;;14.85;10.52;;;;;;;;;;5053230;28;20021;-79
2022/06/24 09:29:56;;;;;;;14.25;11.55;;;;;;;;;;5052380;28;20444;-75
2022/06/24 09:32:22;;;;;;;17.40;12.40;;;;;;;;;;5051371;28;20077;-76
2022/06/24 09:34:58;;;;;;;15.70;11.98;;;;;;;;;;5051152;28;20448;-76
2022/06/24 09:37:36;;;;;;;18.20;13.85;;;;;;;;;;5049241;28;20032;-77
2022/06/24 09:40:21;;;;;;;19.52;13.52;;;;;;;;;;5048398;28;20029;-76
2022/06/24 09:43:09;;;;;;;17.98;13.55;;;;;;;;;;5049452;28;20025;-75
2022/06/24 09:45:53;;;;;;;19.55;13.60;;;;;;;;;;5050869;28;20024;-75
2022/06/24 09:48:30;;;;;;;17.67;13.68;;;;;;;;;;5049575;28;20033;-75
2022/06/24 09:51:03;;;;;;;20.85;13.63;;;;;;;;;;5048675;28;20439;-75
2022/06/24 09:53:37;;;;;;;21.67;13.50;;;;;;;;;;5050471;28;20112;-76
2022/06/24 09:56:04;;;;;;;19.48;13.10;;;;;;;;;;5050711;28;20040;-76
2022/06/24 09:58:30;;;;;;;17.15;12.95;;;;;;;;;;5050828;28;20029;-78
2022/06/24 10:00:56;;;;;;;20.67;13.55;;;;;;;;;;5049555;28;20017;-77
2022/06/24 10:03:22;;;;;;;19.52;12.60;;;;;;;;;;5050893;28;20044;-77
2022/06/24 10:05:50;;;;;;;15.85;13.32;;;;;;;;;;5054315;28;20494;-77
2022/06/24 10:08:17;;;;;;;19.92;12.13;;;;;;;;;;5057580;28;20474;-77
2022/06/24 10:10:48;;;;;;;17.33;12.35;;;;;;;;;;5057500;28;20040;-77
2022/06/24 10:13:25;;;;;;;18.45;12.38;;;;;;;;;;5037514;28;20026;-78
2022/06/24 10:15:52;;;;;;;15.90;11.70;;;;;;;;;;5054187;28;20039;-78
2022/06/24 10:18:19;;;;;;;13.52;10.00;;;;;;;;;;5057549;28;20096;-77
2022/06/24 10:20:46;;;;;;;12.07;9.65;;;;;;;;;;5057599;28;20032;-79
2022/06/24 10:23:32;;;;;;;13.75;8.95;;;;;;;;;;5057866;28;20450;-77
2022/06/24 10:25:58;;;;;;;9.82;7.43;;;;;;;;;;5058075;28;20490;-78
2022/06/24 10:28:24;;;;;;;11.35;7.78;;;;;;;;;;5057960;28;20025;-76
2022/06/24 10:30:57;;;;;;;14.07;7.82;;;;;;;;;;5057409;28;20040;-76
2022/06/24 10:33:25;;;;;;;9.63;6.75;;;;;;;;;;5054532;28;20020;-79
2022/06/24 10:35:55;;;;;;;8.32;6.50;;;;;;;;;;5057762;28;20025;-77
2022/06/24 10:38:23;;;;;;;14.93;7.10;;;;;;;;;;5056213;28;20351;-75
2022/06/24 10:40:49;;;;;;;8.50;7.10;;;;;;;;;;5057401;28;20044;-76
2022/06/24 10:43:33;;;;;;;10.38;6.25;;;;;;;;;;5057204;28;20029;-75
2022/06/24 10:46:16;;;;;;;4.90;4.15;;;;;;;;;;5057130;28;20071;-75
2022/06/24 10:48:47;;;;;;;5.43;3.90;;;;;;;;;;5057223;28;20103;-75
2022/06/24 10:51:13;;;;;;;5.43;3.83;;;;;;;;;;5057405;28;20438;-75
2022/06/24 10:53:58;;;;;;;6.68;4.55;;;;;;;;;;5057536;28;20056;-76
2022/06/24 10:56:42;;;;;;;8.60;4.50;;;;;;;;;;5057162;28;20080;-76
2022/06/24 10:59:08;;;;;;;7.40;4.47;;;;;;;;;;5056741;28;20029;-75
2022/06/24 11:01:36;;;;;;;6.22;4.72;;;;;;;;;;5057658;28;20068;-76
2022/06/24 11:04:05;;;;;;;6.65;4.95;;;;;;;;;;5057608;28;20029;-75
2022/06/24 11:06:31;;;;;;;6.53;4.93;;;;;;;;;;5057306;28;20044;-76
2022/06/24 11:09:05;;;;;;;7.50;5.63;;;;;;;;;;5057487;28;20064;-76
2022/06/24 11:11:31;;;;;;;9.43;5.75;;;;;;;;;;5057738;28;20036;-76
2022/06/24 11:13:57;;;;;;;10.88;5.80;;;;;;;;;;5057296;28;20357;-75
2022/06/24 11:16:27;;;;;;;7.88;6.68;;;;;;;;;;5056490;28;20029;-76
2022/06/24 11:18:53;;;;;;;7.43;6.10;;;;;;;;;;5053707;28;20048;-76
2022/06/24 11:21:19;;;;;;;9.82;5.97;;;;;;;;;;5054309;28;20032;-76
2022/06/24 11:23:48;;;;;;;8.68;6.18;;;;;;;;;;5054316;28;20033;-80
2022/06/24 11:26:18;;;;;;;10.70;6.68;;;;;;;;;;5055411;28;20032;-80
2022/06/24 11:28:56;;;;;;;11.07;6.80;;;;;;;;;;5054757;28;20017;-80
2022/06/24 11:31:23;;;;;;;8.63;6.10;;;;;;;;;;5051468;28;20017;-78
2022/06/24 11:34:08;;;;;;;11.50;6.63;;;;;;;;;;5052661;28;20021;-77
2022/06/24 11:36:35;;;;;;;13.40;6.75;;;;;;;;;;5054468;28;20061;-80
2022/06/24 11:39:03;;;;;;;8.13;6.57;;;;;;;;;;5054466;28;20487;-80
2022/06/24 11:41:31;;;;;;;9.52;6.30;;;;;;;;;;5054789;28;20035;-80
2022/06/24 11:43:57;;;;;;;11.90;6.88;;;;;;;;;;5054274;28;20032;-80
2022/06/24 11:46:27;;;;;;;11.80;6.90;;;;;;;;;;5054427;28;20021;-80
2022/06/24 11:49:05;;;;;;;12.38;7.75;;;;;;;;;;5050158;28;20025;-81
2022/06/24 11:51:32;;;;;;;16.38;10.00;;;;;;;;;;5053637;28;20824;-79
2022/06/24 11:53:58;;;;;;;14.43;9.55;;;;;;;;;;5054650;28;20025;-80
2022/06/24 11:56:29;;;;;;;14.55;11.52;;;;;;;;;;5054254;28;20388;-79
2022/06/24 11:59:02;;;;;;;18.45;14.90;;;;;;;;;;5054436;28;20032;-80
2022/06/24 12:01:29;;;;;;;20.10;15.60;;;;;;;;;;5054526;28;20517;-80
2022/06/24 12:04:00;;;;;;;23.70;19.35;;;;;;;;;;5054182;28;20079;-80
2022/06/24 12:06:26;;;;;;;27.20;19.98;;;;;;;;;;5051379;28;20487;-80
2022/06/24 12:08:54;;;;;;;24.77;18.77;;;;;;;;;;5053699;28;20024;-80
2022/06/24 12:11:21;;;;;;;26.08;18.20;;;;;;;;;;5052246;28;20332;-80
2022/06/24 12:14:04;;;;;;;26.85;20.08;;;;;;;;;;5050080;28;20018;-81
2022/06/24 12:16:49;;;;;;;28.15;20.25;;;;;;;;;;5052099;28;20099;-81
2022/06/24 12:19:15;;;;;;;30.33;21.92;;;;;;;;;;5047091;28;20103;-80
2022/06/24 12:21:41;;;;;;;33.28;20.98;;;;;;;;;;5053345;28;20032;-81
2022/06/24 12:24:21;;;;;;;28.17;21.13;;;;;;;;;;5053019;28;20097;-81
2022/06/24 12:26:47;;;;;;;28.27;19.45;;;;;;;;;;5051657;28;20531;-80
2022/06/24 12:29:13;;;;;;;29.25;19.60;;;;;;;;;;5052644;28;20455;-80
2022/06/24 12:31:50;;;;;;;23.85;18.17;;;;;;;;;;5053090;28;20032;-81
2022/06/24 12:34:24;;;;;;;25.00;17.35;;;;;;;;;;5053483;28;20024;-81
2022/06/24 12:36:55;;;;;;;20.25;14.90;;;;;;;;;;5053753;28;20111;-81
2022/06/24 12:39:27;;;;;;;17.60;11.98;;;;;;;;;;5053604;28;20183;-79
2022/06/24 12:41:53;;;;;;;;;;;;;;;;;;5053842;28;20036;-79
2022/06/24 12:44:19;;;;;;;17.90;12.60;;;;;;;;;;5053183;28;20227;-79
2022/06/24 12:52:35;;;;;;;17.10;13.60;;;;;;;;;;5053388;28;20044;-79
2022/06/24 12:55:01;;;;;;;23.30;14.48;;;;;;;;;;5052775;28;20013;-80
2022/06/24 12:57:27;;;;;;;22.90;15.55;;;;;;;;;;5052468;28;20487;-79
2022/06/24 12:59:53;;;;;;;23.88;15.55;;;;;;;;;;5052787;28;20502;-80
2022/06/24 13:02:19;;;;;;;21.67;17.02;;;;;;;;;;5052798;28;20167;-78
2022/06/24 13:04:46;;;;;;;22.15;17.85;;;;;;;;;;5052726;28;20033;-78
2022/06/24 13:07:12;;;;;;;22.05;17.23;;;;;;;;;;5051307;28;20033;-79
2022/06/24 13:09:38;;;;;;;26.73;17.98;;;;;;;;;;5052525;28;20032;-80
2022/06/24 13:12:04;;;;;;;23.33;16.83;;;;;;;;;;5052632;28;20032;-81
2022/06/24 13:14:30;;;;;;;22.08;16.33;;;;;;;;;;5043242;28;20025;-80
2022/06/24 13:16:56;;;;;;;19.10;15.23;;;;;;;;;;5032996;28;20029;-79
2022/06/24 13:19:22;;;;;;;18.73;14.88;;;;;;;;;;5032631;28;20036;-80
2022/06/24 13:21:48;;;;;;;19.05;15.25;;;;;;;;;;5032632;28;20112;-79
2022/06/24 13:24:14;;;;;;;22.65;15.73;;;;;;;;;;5032514;28;20032;-80
2022/06/24 13:26:40;;;;;;;20.27;14.43;;;;;;;;;;5032932;28;20095;-80
2022/06/24 13:29:07;;;;;;;18.13;14.82;;;;;;;;;;5032565;28;20032;-79
2022/06/24 13:31:33;;;;;;;21.05;15.13;;;;;;;;;;5032703;28;20108;-80
2022/06/24 13:33:59;;;;;;;21.02;15.75;;;;;;;;;;5032078;28;20057;-79
2022/06/24 13:36:25;;;;;;;21.33;16.15;;;;;;;;;;5032308;28;20133;-80
2022/06/24 13:38:51;;;;;;;33.42;18.00;;;;;;;;;;5032628;28;20144;-80
2022/06/24 13:41:17;;;;;;;17.63;14.45;;;;;;;;;;5031841;28;20033;-80
2022/06/24 13:43:43;;;;;;;19.30;14.27;;;;;;;;;;5032434;28;20103;-79
2022/06/24 13:46:09;;;;;;;20.20;14.57;;;;;;;;;;5048923;28;20021;-80
2022/06/24 13:48:35;;;;;;;18.85;15.35;;;;;;;;;;5052440;28;20116;-80
2022/06/24 13:51:01;;;;;;;17.75;12.48;;;;;;;;;;5052230;28;20028;-80
2022/06/24 13:53:27;;;;;;;16.30;13.60;;;;;;;;;;5052292;28;20029;-78
2022/06/24 13:55:53;;;;;;;15.13;12.18;;;;;;;;;;5051602;28;20037;-78
2022/06/24 13:58:19;;;;;;;12.93;10.90;;;;;;;;;;5052230;28;20040;-79
2022/06/24 14:00:45;;;;;;;15.77;10.07;;;;;;;;;;5052009;28;20029;-80
2022/06/24 14:03:11;;;;;;;14.55;11.10;;;;;;;;;;5052147;28;20490;-80
2022/06/24 14:05:37;;;;;;;13.23;9.63;;;;;;;;;;5051310;28;20029;-79
2022/06/24 14:08:04;;;;;;;9.93;8.57;;;;;;;;;;5051000;28;20121;-79
2022/06/24 14:10:30;;;;;;;8.85;6.78;;;;;;;;;;5050583;28;20036;-79
2022/06/24 14:12:56;;;;;;;7.43;5.53;;;;;;;;;;5050465;28;20021;-79
2022/06/24 14:15:24;;;;;;;7.63;6.65;;;;;;;;;;5049699;28;20025;-79
2022/06/24 14:17:50;;;;;;;6.97;6.18;;;;;;;;;;5048950;28;20732;-79
2022/06/24 14:20:17;;;;;;;9.13;6.63;;;;;;;;;;5049058;28;20028;-79
2022/06/24 14:25:28;;;;;;;6.80;5.15;;;;;;;;;;5050110;28;20474;-79
2022/06/24 14:27:54;;;;;;;7.68;4.53;;;;;;;;;;5049967;28;20021;-76
2022/06/24 14:30:20;;;;;;;10.88;5.32;;;;;;;;;;5050363;28;20427;-76
2022/06/24 14:32:46;;;;;;;5.60;5.00;;;;;;;;;;5050068;28;20096;-78
2022/06/24 14:35:12;;;;;;;5.38;4.00;;;;;;;;;;5050072;28;20021;-78
2022/06/24 14:40:24;;;;;;;6.68;5.25;;;;;;;;;;5050299;28;20169;-76
2022/06/24 14:42:51;;;;;;;5.28;3.75;;;;;;;;;;5049931;28;20368;-79
2022/06/24 14:45:17;;;;;;;4.85;3.15;;;;;;;;;;5050105;28;20062;-77
2022/06/24 14:47:43;;;;;;;4.43;3.33;;;;;;;;;;5050322;28;20025;-77
2022/06/24 14:50:09;;;;;;;3.17;2.38;;;;;;;;;;5050017;28;20444;-77
2022/06/24 14:52:35;;;;;;;2.67;1.70;;;;;;;;;;5052927;28;20367;-77
2022/06/24 14:55:02;;;;;;;1.50;1.20;;;;;;;;;;5052881;28;20009;-76
2022/06/24 14:57:28;;;;;;;1.25;1.05;;;;;;;;;;5053207;28;20143;-76
2022/06/24 14:59:55;;;;;;;1.77;0.88;;;;;;;;;;5051803;28;20048;-77